createdAt,value
2016-10-16T00:00:46.607Z,8.05
2016-10-16T00:01:46.209Z,8.05
2016-10-16T00:02:45.811Z,8.06
2016-10-16T00:03:45.722Z,8.08
2016-10-16T00:04:46.984Z,8.03
2016-10-16T00:05:47.662Z,8.01
2016-10-16T00:06:45.685Z,8.01
2016-10-16T00:07:47.720Z,8.08
2016-10-16T00:08:46.274Z,8.06
2016-10-16T00:09:46.457Z,8.03
2016-10-16T00:10:45.621Z,8.08
2016-10-16T00:11:46.908Z,8.08
2016-10-16T00:12:46.636Z,8.09
2016-10-16T00:13:45.137Z,8.01
2016-10-16T00:14:45.666Z,8.05
2016-10-16T00:15:45.814Z,8.05
2016-10-16T00:16:45.553Z,8.09
2016-10-16T00:17:46.601Z,8.06
2016-10-16T00:18:46.476Z,8.05
2016-10-16T00:19:45.308Z,8.05
2016-10-16T00:20:45.581Z,8.03
2016-10-16T00:21:46.491Z,8.1
2016-10-16T00:22:46.646Z,8.05
2016-10-16T00:23:45.874Z,8.06
2016-10-16T00:24:46.242Z,8.05
2016-10-16T00:25:46.271Z,8.05
2016-10-16T00:26:45.409Z,8.08
2016-10-16T00:27:45.493Z,8.05
2016-10-16T00:28:45.533Z,8.03
2016-10-16T00:29:45.995Z,8.06
2016-10-16T00:30:46.330Z,8.05
2016-10-16T00:31:47.198Z,8.05
2016-10-16T00:32:46.520Z,8.12
2016-10-16T00:33:46.726Z,8.09
2016-10-16T00:34:46.898Z,8.05
2016-10-16T00:35:46.381Z,8.03
2016-10-16T00:36:46.164Z,8.1
2016-10-16T00:37:46.397Z,8.09
2016-10-16T00:38:45.491Z,7.95
2016-10-16T00:39:46.887Z,8.08
2016-10-16T00:40:46.764Z,7.97
2016-10-16T00:41:46.139Z,7.95
2016-10-16T00:42:46.928Z,7.98
2016-10-16T00:43:47.076Z,7.95
2016-10-16T00:44:46.861Z,7.94
2016-10-16T00:45:46.227Z,7.98
2016-10-16T00:46:46.405Z,7.91
2016-10-16T00:47:47.187Z,7.88
2016-10-16T00:48:46.916Z,7.95
2016-10-16T00:49:46.255Z,7.98
2016-10-16T00:50:46.226Z,7.97
2016-10-16T00:51:46.334Z,7.94
2016-10-16T00:52:45.999Z,7.95
2016-10-16T00:53:46.222Z,7.95
2016-10-16T00:54:46.864Z,7.98
2016-10-16T00:55:46.371Z,7.97
2016-10-16T00:56:46.479Z,7.94
2016-10-16T00:57:46.751Z,7.97
2016-10-16T00:58:46.731Z,7.93
2016-10-16T00:59:46.552Z,7.91
2016-10-16T01:00:46.743Z,7.94
2016-10-16T01:01:46.595Z,7.85
2016-10-16T01:02:46.910Z,7.88
2016-10-16T01:03:46.420Z,7.85
2016-10-16T01:04:46.915Z,7.93
2016-10-16T01:05:46.879Z,7.9
2016-10-16T01:06:47.427Z,7.95
2016-10-16T01:07:46.728Z,7.9
2016-10-16T01:08:46.660Z,7.88
2016-10-16T01:09:46.952Z,7.88
2016-10-16T01:10:47.052Z,7.9
2016-10-16T01:11:47.014Z,7.83
2016-10-16T01:12:46.580Z,7.93
2016-10-16T01:13:47.386Z,7.87
2016-10-16T01:14:47.934Z,7.97
2016-10-16T01:15:47.035Z,7.94
2016-10-16T01:16:47.196Z,7.97
2016-10-16T01:17:46.965Z,7.97
2016-10-16T01:18:46.602Z,8.01
2016-10-16T01:19:46.851Z,8.01
2016-10-16T01:20:46.436Z,7.98
2016-10-16T01:21:47.894Z,8
2016-10-16T01:22:47.349Z,8.01
2016-10-16T01:23:47.274Z,8.03
2016-10-16T01:24:46.751Z,8.05
2016-10-16T01:25:47.885Z,7.97
2016-10-16T01:26:47.464Z,8
2016-10-16T01:27:47.854Z,8.01
2016-10-16T01:28:48.541Z,7.98
2016-10-16T01:29:47.643Z,8.01
2016-10-16T01:30:47.484Z,7.97
2016-10-16T01:31:47.544Z,7.95
2016-10-16T01:32:46.740Z,7.91
2016-10-16T01:33:46.466Z,7.83
2016-10-16T01:34:47.072Z,7.87
2016-10-16T01:35:46.979Z,7.93
2016-10-16T01:36:47.420Z,7.8
2016-10-16T01:37:47.558Z,7.83
2016-10-16T01:38:46.802Z,7.91
2016-10-16T01:39:47.220Z,7.76
2016-10-16T01:40:47.802Z,7.79
2016-10-16T01:41:48.021Z,7.73
2016-10-16T01:42:46.860Z,7.7
2016-10-16T01:43:47.279Z,7.75
2016-10-16T01:44:47.029Z,7.6
2016-10-16T01:45:46.803Z,7.63
2016-10-16T01:46:46.722Z,7.6
2016-10-16T01:47:47.535Z,7.66
2016-10-16T01:48:47.339Z,7.57
2016-10-16T01:49:48.747Z,7.6
2016-10-16T01:50:46.802Z,7.6
2016-10-16T01:51:47.517Z,7.66
2016-10-16T01:52:48.029Z,7.66
2016-10-16T01:53:47.101Z,7.61
2016-10-16T01:54:47.305Z,7.58
2016-10-16T01:55:47.512Z,7.57
2016-10-16T01:56:47.161Z,7.54
2016-10-16T01:57:47.665Z,7.51
2016-10-16T01:58:48.485Z,7.51
2016-10-16T01:59:48.623Z,7.47
2016-10-16T02:00:48.197Z,7.53
2016-10-16T02:01:48.068Z,7.53
2016-10-16T02:02:47.646Z,7.51
2016-10-16T02:03:47.237Z,7.53
2016-10-16T02:04:48.615Z,7.5
2016-10-16T02:05:47.695Z,7.54
2016-10-16T02:06:48.158Z,7.47
2016-10-16T02:07:48.572Z,7.45
2016-10-16T02:08:47.792Z,7.45
2016-10-16T02:09:48.001Z,7.5
2016-10-16T02:10:48.315Z,7.45
2016-10-16T02:11:47.931Z,7.43
2016-10-16T02:12:48.116Z,7.43
2016-10-16T02:13:48.041Z,7.45
2016-10-16T02:14:48.139Z,7.45
2016-10-16T02:15:47.635Z,7.48
2016-10-16T02:16:48.245Z,7.48
2016-10-16T02:17:47.485Z,7.54
2016-10-16T02:18:48.088Z,7.54
2016-10-16T02:19:48.984Z,7.56
2016-10-16T02:20:47.994Z,7.53
2016-10-16T02:21:48.021Z,7.51
2016-10-16T02:22:48.041Z,7.53
2016-10-16T02:23:48.365Z,7.54
2016-10-16T02:24:48.014Z,7.63
2016-10-16T02:25:47.961Z,7.63
2016-10-16T02:26:47.859Z,7.54
2016-10-16T02:27:47.835Z,7.63
2016-10-16T02:28:47.967Z,7.61
2016-10-16T02:29:48.453Z,7.61
2016-10-16T02:30:48.338Z,7.58
2016-10-16T02:31:48.387Z,7.61
2016-10-16T02:32:48.197Z,7.58
2016-10-16T02:33:48.030Z,7.58
2016-10-16T02:34:48.333Z,7.56
2016-10-16T02:35:47.844Z,7.6
2016-10-16T02:36:48.857Z,7.58
2016-10-16T02:37:48.591Z,7.6
2016-10-16T02:38:47.632Z,7.57
2016-10-16T02:39:49.152Z,7.6
2016-10-16T02:40:48.560Z,7.66
2016-10-16T02:41:48.631Z,7.66
2016-10-16T02:42:48.536Z,7.69
2016-10-16T02:43:48.703Z,7.66
2016-10-16T02:44:48.372Z,7.79
2016-10-16T02:45:49.086Z,7.61
2016-10-16T02:46:48.412Z,7.73
2016-10-16T02:47:48.721Z,7.7
2016-10-16T02:48:48.047Z,7.79
2016-10-16T02:49:48.737Z,7.72
2016-10-16T02:50:48.322Z,7.79
2016-10-16T02:51:50.696Z,7.8
2016-10-16T02:52:49.012Z,7.76
2016-10-16T02:53:48.026Z,7.82
2016-10-16T02:54:49.027Z,7.77
2016-10-16T02:55:48.438Z,7.77
2016-10-16T02:56:48.594Z,7.82
2016-10-16T02:57:49.087Z,7.77
2016-10-16T02:58:48.640Z,7.76
2016-10-16T02:59:49.185Z,7.72
2016-10-16T03:00:48.655Z,7.77
2016-10-16T03:01:49.359Z,7.82
2016-10-16T03:02:49.799Z,7.72
2016-10-16T03:03:48.894Z,7.76
2016-10-16T03:04:49.315Z,7.77
2016-10-16T03:05:49.019Z,7.75
2016-10-16T03:06:49.238Z,7.75
2016-10-16T03:07:48.942Z,7.82
2016-10-16T03:08:49.052Z,7.8
2016-10-16T03:09:49.303Z,7.73
2016-10-16T03:10:48.818Z,7.83
2016-10-16T03:11:50.347Z,7.85
2016-10-16T03:12:49.316Z,7.85
2016-10-16T03:13:48.568Z,7.93
2016-10-16T03:14:48.476Z,8
2016-10-16T03:15:49.411Z,7.95
2016-10-16T03:16:49.057Z,8.05
2016-10-16T03:17:50.335Z,8.08
2016-10-16T03:18:49.399Z,8.1
2016-10-16T03:19:49.183Z,8.2
2016-10-16T03:20:50.046Z,8.15
2016-10-16T03:21:50.253Z,8.05
2016-10-16T03:22:49.231Z,8.09
2016-10-16T03:23:49.071Z,8.09
2016-10-16T03:24:48.725Z,8.06
2016-10-16T03:25:49.003Z,8.08
2016-10-16T03:26:50.245Z,8.01
2016-10-16T03:27:48.648Z,8.08
2016-10-16T03:28:49.181Z,8
2016-10-16T03:29:48.931Z,8.08
2016-10-16T03:30:48.564Z,8.09
2016-10-16T03:31:49.182Z,8.08
2016-10-16T03:32:49.447Z,8.05
2016-10-16T03:33:49.591Z,8.05
2016-10-16T03:34:49.556Z,8.08
2016-10-16T03:35:49.217Z,8.08
2016-10-16T03:36:49.927Z,8.06
2016-10-16T03:37:49.536Z,8.08
2016-10-16T03:38:50.536Z,8.13
2016-10-16T03:39:49.846Z,8.06
2016-10-16T03:40:49.955Z,8.13
2016-10-16T03:41:48.820Z,8.2
2016-10-16T03:42:49.451Z,8.15
2016-10-16T03:43:49.170Z,8.16
2016-10-16T03:44:51.012Z,8.19
2016-10-16T03:45:50.634Z,8.15
2016-10-16T03:46:50.048Z,8.13
2016-10-16T03:47:50.066Z,8.18
2016-10-16T03:48:49.993Z,8.16
2016-10-16T03:49:49.758Z,8.16
2016-10-16T03:50:50.913Z,8.24
2016-10-16T03:51:50.368Z,8.24
2016-10-16T03:52:49.111Z,8.2
2016-10-16T03:53:49.419Z,8.1
2016-10-16T03:54:49.027Z,8.19
2016-10-16T03:55:49.807Z,8.18
2016-10-16T03:56:49.113Z,8.18
2016-10-16T03:57:49.461Z,8.19
2016-10-16T03:58:49.796Z,8.23
2016-10-16T03:59:49.441Z,8.23
2016-10-16T04:00:49.401Z,8.18
2016-10-16T04:01:51.009Z,8.24
2016-10-16T04:02:49.798Z,8.23
2016-10-16T04:03:49.245Z,8.24
2016-10-16T04:04:51.126Z,8.2
2016-10-16T04:05:50.465Z,8.19
2016-10-16T04:06:50.662Z,8.23
2016-10-16T04:07:50.357Z,8.3
2016-10-16T04:08:49.560Z,8.23
2016-10-16T04:09:49.559Z,8.28
2016-10-16T04:10:50.264Z,8.33
2016-10-16T04:11:50.515Z,8.37
2016-10-16T04:12:49.876Z,8.37
2016-10-16T04:13:49.996Z,8.38
2016-10-16T04:14:50.465Z,8.37
2016-10-16T04:15:51.260Z,8.33
2016-10-16T04:16:51.384Z,8.34
2016-10-16T04:17:49.218Z,8.36
2016-10-16T04:18:50.252Z,8.33
2016-10-16T04:19:50.321Z,8.36
2016-10-16T04:20:49.495Z,8.42
2016-10-16T04:21:49.809Z,8.33
2016-10-16T04:22:50.310Z,8.23
2016-10-16T04:23:50.977Z,8.01
2016-10-16T04:24:50.904Z,7.95
2016-10-16T04:25:50.993Z,7.9
2016-10-16T04:26:50.753Z,7.75
2016-10-16T04:27:50.301Z,7.69
2016-10-16T04:28:50.569Z,7.69
2016-10-16T04:29:50.288Z,7.73
2016-10-16T04:30:50.620Z,7.61
2016-10-16T04:31:50.117Z,7.67
2016-10-16T04:32:50.784Z,7.66
2016-10-16T04:33:51.229Z,7.63
2016-10-16T04:34:51.188Z,7.61
2016-10-16T04:35:50.261Z,7.6
2016-10-16T04:36:50.849Z,7.58
2016-10-16T04:37:50.488Z,7.6
2016-10-16T04:38:50.648Z,7.58
2016-10-16T04:39:51.043Z,7.58
2016-10-16T04:40:52.999Z,7.58
2016-10-16T04:41:51.025Z,7.58
2016-10-16T04:42:50.570Z,7.6
2016-10-16T04:43:50.921Z,7.63
2016-10-16T04:44:50.726Z,7.67
2016-10-16T04:45:51.051Z,7.69
2016-10-16T04:46:50.907Z,7.73
2016-10-16T04:47:50.345Z,7.7
2016-10-16T04:48:50.345Z,7.77
2016-10-16T04:49:50.462Z,7.7
2016-10-16T04:50:50.625Z,7.77
2016-10-16T04:51:51.037Z,7.77
2016-10-16T04:52:51.410Z,7.87
2016-10-16T04:55:52.726Z,7.88
2016-10-16T04:57:55.990Z,7.9
2016-10-16T04:58:51.801Z,7.88
2016-10-16T04:59:51.611Z,7.85
2016-10-16T05:00:49.594Z,7.88
2016-10-16T05:01:51.111Z,7.88
2016-10-16T05:02:51.288Z,7.9
2016-10-16T05:03:51.495Z,7.87
2016-10-16T05:04:51.988Z,7.95
2016-10-16T05:05:50.500Z,7.93
2016-10-16T05:06:50.268Z,7.91
2016-10-16T05:07:50.896Z,7.93
2016-10-16T05:08:51.062Z,7.94
2016-10-16T05:09:51.418Z,7.83
2016-10-16T05:10:51.365Z,7.93
2016-10-16T05:11:51.401Z,7.98
2016-10-16T05:12:51.434Z,8.05
2016-10-16T05:13:50.663Z,8.03
2016-10-16T05:14:51.345Z,7.97
2016-10-16T05:15:51.235Z,7.97
2016-10-16T05:16:50.574Z,8.06
2016-10-16T05:17:52.173Z,8.01
2016-10-16T05:18:52.122Z,8.03
2016-10-16T05:19:51.296Z,8.06
2016-10-16T05:20:51.664Z,8.05
2016-10-16T05:21:51.201Z,8.05
2016-10-16T05:22:50.641Z,8.09
2016-10-16T05:23:51.438Z,8.06
2016-10-16T05:24:51.134Z,8.01
2016-10-16T05:25:51.232Z,8.01
2016-10-16T05:26:51.704Z,8.09
2016-10-16T05:27:51.910Z,8.08
2016-10-16T05:28:51.209Z,7.94
2016-10-16T05:29:51.226Z,7.93
2016-10-16T05:30:50.612Z,7.87
2016-10-16T05:31:50.247Z,7.94
2016-10-16T05:32:52.530Z,7.91
2016-10-16T05:33:52.372Z,7.85
2016-10-16T05:34:51.657Z,7.83
2016-10-16T05:35:51.564Z,7.9
2016-10-16T05:36:50.932Z,7.76
2016-10-16T05:37:50.914Z,7.83
2016-10-16T05:38:52.674Z,7.82
2016-10-16T05:39:51.267Z,7.87
2016-10-16T05:40:52.980Z,7.83
2016-10-16T05:41:51.925Z,7.75
2016-10-16T05:42:51.869Z,7.72
2016-10-16T05:43:52.335Z,7.79
2016-10-16T05:44:51.124Z,7.69
2016-10-16T05:45:52.592Z,7.72
2016-10-16T05:46:51.221Z,7.75
2016-10-16T05:47:52.905Z,7.73
2016-10-16T05:48:52.070Z,7.69
2016-10-16T05:49:51.855Z,7.73
2016-10-16T05:50:52.317Z,7.76
2016-10-16T05:51:51.857Z,7.69
2016-10-16T05:52:51.944Z,7.75
2016-10-16T05:53:51.748Z,7.77
2016-10-16T05:54:52.714Z,7.73
2016-10-16T05:55:52.550Z,7.79
2016-10-16T05:56:51.881Z,7.73
2016-10-16T05:57:51.777Z,7.79
2016-10-16T05:58:52.279Z,7.75
2016-10-16T05:59:51.995Z,7.79
2016-10-16T06:00:50.964Z,7.75
2016-10-16T06:01:51.752Z,7.75
2016-10-16T06:02:51.423Z,7.77
2016-10-16T06:03:52.443Z,7.72
2016-10-16T06:04:52.176Z,7.79
2016-10-16T06:05:51.472Z,7.72
2016-10-16T06:06:52.176Z,7.77
2016-10-16T06:07:52.168Z,7.76
2016-10-16T06:08:52.268Z,7.72
2016-10-16T06:09:53.831Z,7.85
2016-10-16T06:10:51.825Z,7.91
2016-10-16T06:11:51.867Z,7.97
2016-10-16T06:12:52.641Z,8
2016-10-16T06:13:52.889Z,8.05
2016-10-16T06:14:51.522Z,8
2016-10-16T06:15:51.747Z,8.24
2016-10-16T06:16:53.098Z,8.2
2016-10-16T06:17:52.136Z,8.27
2016-10-16T06:18:51.878Z,8.31
2016-10-16T06:19:52.435Z,8.34
2016-10-16T06:20:52.097Z,8.31
2016-10-16T06:21:52.275Z,8.45
2016-10-16T06:22:53.071Z,8.38
2016-10-16T06:23:52.417Z,8.38
2016-10-16T06:24:52.515Z,8.34
2016-10-16T06:25:53.442Z,8.34
2016-10-16T06:26:52.859Z,8.48
2016-10-16T06:27:52.470Z,8.51
2016-10-16T06:28:52.519Z,8.45
2016-10-16T06:29:53.416Z,8.49
2016-10-16T06:30:52.207Z,8.51
2016-10-16T06:31:52.747Z,8.49
2016-10-16T06:32:53.114Z,8.53
2016-10-16T06:33:52.404Z,8.44
2016-10-16T06:34:51.859Z,8.56
2016-10-16T06:35:52.426Z,8.51
2016-10-16T06:36:52.712Z,8.56
2016-10-16T06:37:52.359Z,8.53
2016-10-16T06:38:52.682Z,8.55
2016-10-16T06:39:52.182Z,8.56
2016-10-16T06:40:52.392Z,8.53
2016-10-16T06:41:52.700Z,8.51
2016-10-16T06:42:52.570Z,8.53
2016-10-16T06:43:52.868Z,8.58
2016-10-16T06:44:53.916Z,8.63
2016-10-16T06:45:52.405Z,8.56
2016-10-16T06:46:52.986Z,8.53
2016-10-16T06:47:53.245Z,8.56
2016-10-16T06:48:53.803Z,8.48
2016-10-16T06:49:52.297Z,8.48
2016-10-16T06:50:54.344Z,8.51
2016-10-16T06:51:53.570Z,8.53
2016-10-16T06:52:53.061Z,8.52
2016-10-16T06:53:52.806Z,8.49
2016-10-16T06:54:52.335Z,8.52
2016-10-16T06:55:52.494Z,8.56
2016-10-16T06:56:51.667Z,8.58
2016-10-16T06:57:51.507Z,8.55
2016-10-16T06:58:52.214Z,8.55
2016-10-16T06:59:51.513Z,8.6
2016-10-16T07:00:52.224Z,8.56
2016-10-16T07:01:52.293Z,8.52
2016-10-16T07:02:53.135Z,8.44
2016-10-16T07:03:53.143Z,8.44
2016-10-16T07:04:52.973Z,8.44
2016-10-16T07:05:52.220Z,8.49
2016-10-16T07:06:52.472Z,8.3
2016-10-16T07:07:52.365Z,8.31
2016-10-16T07:08:53.024Z,8.44
2016-10-16T07:09:53.554Z,8.48
2016-10-16T07:10:55.495Z,8.51
2016-10-16T07:11:55.597Z,8.51
2016-10-16T07:12:53.592Z,8.48
2016-10-16T07:13:53.369Z,8.41
2016-10-16T07:14:53.320Z,8.31
2016-10-16T07:15:53.097Z,8.34
2016-10-16T07:16:52.503Z,8.33
2016-10-16T07:17:53.086Z,8.31
2016-10-16T07:18:53.335Z,8.3
2016-10-16T07:19:52.400Z,8.34
2016-10-16T07:20:52.958Z,8.42
2016-10-16T07:21:53.106Z,8.36
2016-10-16T07:22:52.382Z,8.34
2016-10-16T07:23:53.511Z,8.38
2016-10-16T07:24:53.969Z,8.45
2016-10-16T07:25:53.664Z,8.34
2016-10-16T07:26:54.139Z,8.48
2016-10-16T07:27:53.418Z,8.53
2016-10-16T07:28:54.176Z,8.48
2016-10-16T07:29:53.910Z,8.53
2016-10-16T07:30:53.939Z,8.51
2016-10-16T07:31:54.876Z,8.46
2016-10-16T07:32:53.371Z,8.48
2016-10-16T07:33:52.891Z,8.41
2016-10-16T07:34:53.120Z,8.49
2016-10-16T07:35:53.713Z,8.46
2016-10-16T07:36:54.432Z,8.55
2016-10-16T07:37:53.850Z,8.48
2016-10-16T07:38:54.214Z,8.51
2016-10-16T07:39:53.672Z,8.52
2016-10-16T07:40:53.894Z,8.45
2016-10-16T07:41:53.200Z,8.52
2016-10-16T07:42:52.935Z,8.41
2016-10-16T07:43:55.105Z,8.48
2016-10-16T07:44:53.778Z,8.55
2016-10-16T07:45:53.350Z,8.49
2016-10-16T07:46:53.352Z,8.56
2016-10-16T07:47:52.985Z,8.56
2016-10-16T07:48:54.292Z,8.48
2016-10-16T07:49:53.713Z,8.58
2016-10-16T07:50:52.923Z,8.51
2016-10-16T07:51:53.391Z,8.61
2016-10-16T07:52:53.027Z,8.56
2016-10-16T07:53:53.922Z,8.58
2016-10-16T07:54:52.198Z,8.56
2016-10-16T07:55:54.429Z,8.6
2016-10-16T07:56:52.983Z,8.44
2016-10-16T07:57:55.001Z,8.52
2016-10-16T07:58:53.536Z,8.51
2016-10-16T07:59:53.246Z,8.51
2016-10-16T08:00:53.736Z,8.56
2016-10-16T08:01:53.740Z,8.64
2016-10-16T08:02:54.145Z,8.69
2016-10-16T08:03:53.243Z,8.76
2016-10-16T08:04:53.805Z,8.71
2016-10-16T08:05:54.233Z,8.67
2016-10-16T08:06:53.935Z,8.73
2016-10-16T08:07:54.075Z,8.76
2016-10-16T08:08:53.685Z,8.7
2016-10-16T08:09:53.639Z,8.69
2016-10-16T08:10:53.504Z,8.74
2016-10-16T08:11:54.312Z,8.71
2016-10-16T08:12:53.631Z,8.78
2016-10-16T08:13:54.480Z,8.74
2016-10-16T08:14:54.114Z,8.74
2016-10-16T08:15:55.110Z,8.7
2016-10-16T08:16:54.829Z,8.76
2016-10-16T08:17:54.254Z,8.66
2016-10-16T08:18:53.644Z,8.73
2016-10-16T08:19:53.672Z,8.66
2016-10-16T08:20:53.863Z,8.58
2016-10-16T08:21:54.325Z,8.69
2016-10-16T08:22:54.138Z,8.7
2016-10-16T08:23:53.434Z,8.78
2016-10-16T08:24:54.394Z,8.78
2016-10-16T08:25:54.028Z,8.92
2016-10-16T08:26:54.189Z,9.03
2016-10-16T08:27:54.167Z,8.85
2016-10-16T08:28:53.393Z,8.84
2016-10-16T08:29:54.479Z,8.82
2016-10-16T08:30:54.120Z,8.85
2016-10-16T08:31:53.577Z,8.88
2016-10-16T08:32:55.113Z,8.85
2016-10-16T08:33:54.057Z,8.81
2016-10-16T08:34:55.011Z,8.89
2016-10-16T08:35:54.427Z,8.91
2016-10-16T08:36:54.694Z,9.03
2016-10-16T08:37:54.407Z,8.92
2016-10-16T08:38:54.762Z,8.95
2016-10-16T08:39:53.923Z,9.03
2016-10-16T08:40:54.251Z,9.03
2016-10-16T08:41:54.518Z,9.02
2016-10-16T08:42:54.304Z,9.03
2016-10-16T08:43:54.721Z,9.03
2016-10-16T08:44:54.790Z,8.99
2016-10-16T08:45:55.801Z,8.87
2016-10-16T08:46:54.423Z,8.88
2016-10-16T08:47:54.800Z,9.06
2016-10-16T08:48:55.374Z,9.03
2016-10-16T08:49:54.362Z,9.04
2016-10-16T08:50:56.082Z,9.13
2016-10-16T08:51:55.360Z,9.32
2016-10-16T08:52:54.405Z,9.31
2016-10-16T08:53:55.368Z,9.41
2016-10-16T08:54:54.842Z,9.4
2016-10-16T08:55:54.536Z,9.25
2016-10-16T08:56:54.864Z,9.29
2016-10-16T08:57:55.878Z,9.26
2016-10-16T08:58:55.289Z,9.34
2016-10-16T08:59:56.136Z,9.39
2016-10-16T09:00:55.270Z,9.43
2016-10-16T09:01:54.900Z,9.41
2016-10-16T09:02:54.394Z,9.39
2016-10-16T09:03:54.925Z,9.5
2016-10-16T09:04:54.951Z,9.48
2016-10-16T09:05:55.287Z,9.69
2016-10-16T09:06:55.960Z,9.68
2016-10-16T09:07:54.394Z,9.69
2016-10-16T09:08:56.084Z,9.76
2016-10-16T09:09:55.247Z,9.68
2016-10-16T09:10:55.282Z,9.65
2016-10-16T09:11:56.216Z,9.66
2016-10-16T09:12:55.276Z,9.62
2016-10-16T09:13:54.980Z,9.56
2016-10-16T09:14:55.116Z,9.58
2016-10-16T09:15:55.968Z,9.73
2016-10-16T09:16:55.465Z,9.76
2016-10-16T09:17:55.580Z,9.92
2016-10-16T09:18:55.467Z,9.8
2016-10-16T09:19:55.403Z,9.77
2016-10-16T09:20:55.328Z,9.62
2016-10-16T09:21:57.080Z,9.69
2016-10-16T09:22:55.572Z,9.77
2016-10-16T09:23:55.094Z,9.86
2016-10-16T09:24:56.114Z,9.89
2016-10-16T09:25:56.732Z,9.92
2016-10-16T09:26:55.316Z,9.84
2016-10-16T09:27:55.960Z,9.82
2016-10-16T09:28:55.989Z,9.89
2016-10-16T09:29:55.279Z,9.83
2016-10-16T09:30:56.333Z,10.02
2016-10-16T09:31:55.200Z,9.95
2016-10-16T09:32:55.751Z,10.12
2016-10-16T09:33:54.939Z,10.13
2016-10-16T09:34:56.499Z,10.16
2016-10-16T09:35:57.077Z,10.02
2016-10-16T09:36:56.324Z,10.05
2016-10-16T09:37:54.988Z,10.02
2016-10-16T09:38:55.435Z,9.95
2016-10-16T09:39:55.321Z,9.97
2016-10-16T09:40:55.212Z,9.97
2016-10-16T09:41:55.529Z,10.07
2016-10-16T09:42:55.353Z,10.35
2016-10-16T09:43:56.409Z,10.38
2016-10-16T09:44:56.350Z,10.53
2016-10-16T09:45:55.635Z,10.6
2016-10-16T09:46:55.994Z,10.81
2016-10-16T09:47:56.419Z,10.94
2016-10-16T09:48:55.440Z,10.82
2016-10-16T09:49:55.721Z,11.1
2016-10-16T09:50:56.640Z,11.02
2016-10-16T09:51:55.121Z,10.75
2016-10-16T09:52:55.290Z,10.82
2016-10-16T09:53:55.440Z,10.87
2016-10-16T09:54:55.554Z,10.84
2016-10-16T09:55:55.616Z,10.82
2016-10-16T09:56:56.349Z,10.9
2016-10-16T09:57:56.106Z,10.81
2016-10-16T09:58:55.802Z,10.93
2016-10-16T09:59:55.836Z,10.79
2016-10-16T10:00:55.456Z,10.76
2016-10-16T10:01:55.881Z,10.53
2016-10-16T10:02:55.758Z,10.54
2016-10-16T10:03:55.265Z,10.69
2016-10-16T10:04:56.353Z,10.75
2016-10-16T10:05:57.242Z,10.94
2016-10-16T10:06:56.676Z,11.04
2016-10-16T10:07:56.250Z,11.18
2016-10-16T10:08:56.281Z,11.33
2016-10-16T10:09:56.786Z,11.4
2016-10-16T10:10:56.267Z,11.37
2016-10-16T10:11:56.384Z,11.35
2016-10-16T10:12:55.557Z,11.44
2016-10-16T10:13:56.246Z,11.75
2016-10-16T10:14:55.580Z,11.95
2016-10-16T10:15:56.623Z,12.04
2016-10-16T10:16:57.189Z,12.42
2016-10-16T10:17:55.608Z,12.65
2016-10-16T10:18:56.399Z,12.82
2016-10-16T10:19:55.606Z,13.11
2016-10-16T10:20:56.080Z,13.38
2016-10-16T10:21:55.970Z,13.59
2016-10-16T10:22:57.026Z,13.57
2016-10-16T10:23:58.299Z,13.74
2016-10-16T10:24:56.135Z,13.87
2016-10-16T10:25:57.075Z,14.11
2016-10-16T10:26:57.476Z,14.23
2016-10-16T10:27:57.300Z,14.33
2016-10-16T10:28:57.279Z,14.48
2016-10-16T10:29:57.277Z,14.7
2016-10-16T10:30:55.982Z,15.19
2016-10-16T10:31:56.076Z,15.31
2016-10-16T10:32:57.180Z,15.43
2016-10-16T10:33:57.054Z,15
2016-10-16T10:34:56.448Z,14.88
2016-10-16T10:35:57.657Z,14.23
2016-10-16T10:36:57.044Z,14.36
2016-10-16T10:37:56.624Z,14.26
2016-10-16T10:38:55.932Z,14.41
2016-10-16T10:39:57.614Z,14.5
2016-10-16T10:40:57.037Z,14.6
2016-10-16T10:41:56.360Z,14.72
2016-10-16T10:42:57.428Z,14.36
2016-10-16T10:43:56.958Z,14.25
2016-10-16T10:44:56.314Z,14.43
2016-10-16T10:45:56.793Z,14.73
2016-10-16T10:46:57.991Z,14.51
2016-10-16T10:47:56.185Z,15.09
2016-10-16T10:48:56.415Z,14.85
2016-10-16T10:49:56.959Z,15
2016-10-16T10:50:56.803Z,15.03
2016-10-16T10:51:56.649Z,14.91
2016-10-16T10:52:56.678Z,14.96
2016-10-16T10:53:57.541Z,15.58
2016-10-16T10:54:57.283Z,15.52
2016-10-16T10:55:57.001Z,15.64
2016-10-16T10:56:57.166Z,15.17
2016-10-16T10:57:56.930Z,15.51
2016-10-16T10:58:57.711Z,15.58
2016-10-16T10:59:57.767Z,15.83
2016-10-16T11:00:57.182Z,16.09
2016-10-16T11:01:57.957Z,15.94
2016-10-16T11:02:56.949Z,16.12
2016-10-16T11:03:57.495Z,16.65
2016-10-16T11:04:57.119Z,16.46
2016-10-16T11:05:56.933Z,16.46
2016-10-16T11:06:58.019Z,16.6
2016-10-16T11:07:57.418Z,16.56
2016-10-16T11:08:57.699Z,17.38
2016-10-16T11:09:58.627Z,17.31
2016-10-16T11:10:57.570Z,17.56
2016-10-16T11:11:57.091Z,17.79
2016-10-16T11:12:57.657Z,17.64
2016-10-16T11:13:58.646Z,17.67
2016-10-16T11:14:57.111Z,17.9
2016-10-16T11:15:57.521Z,18.08
2016-10-16T11:16:57.604Z,17.82
2016-10-16T11:17:57.237Z,18.01
2016-10-16T11:18:57.805Z,17.76
2016-10-16T11:19:57.946Z,18.22
2016-10-16T11:20:57.491Z,18.25
2016-10-16T11:21:58.141Z,18.4
2016-10-16T11:22:58.629Z,17.98
2016-10-16T11:23:59.040Z,18.33
2016-10-16T11:24:57.506Z,18.23
2016-10-16T11:25:57.638Z,18.55
2016-10-16T11:26:58.048Z,18.29
2016-10-16T11:27:58.423Z,18.34
2016-10-16T11:28:57.624Z,17.97
2016-10-16T11:29:57.980Z,18.08
2016-10-16T11:30:57.729Z,18.55
2016-10-16T11:31:58.083Z,18.75
2016-10-16T11:32:58.207Z,18.7
2016-10-16T11:33:58.160Z,19.22
2016-10-16T11:34:57.528Z,19.18
2016-10-16T11:35:57.808Z,19.18
2016-10-16T11:36:58.713Z,18.92
2016-10-16T11:37:58.567Z,18.89
2016-10-16T11:38:59.585Z,18.37
2016-10-16T11:39:57.757Z,18.47
2016-10-16T11:40:58.866Z,18.59
2016-10-16T11:41:57.931Z,18.22
2016-10-16T11:42:57.890Z,18.03
2016-10-16T11:43:58.612Z,18.23
2016-10-16T11:45:00.087Z,18.47
2016-10-16T11:45:58.425Z,18.5
2016-10-16T11:46:58.539Z,19.14
2016-10-16T11:47:58.411Z,18.9
2016-10-16T11:48:58.249Z,18.55
2016-10-16T11:49:58.449Z,18.5
2016-10-16T11:50:57.818Z,18.55
2016-10-16T11:51:58.212Z,18.26
2016-10-16T11:52:58.845Z,18.45
2016-10-16T11:53:58.094Z,18.9
2016-10-16T11:54:59.140Z,19.07
2016-10-16T11:55:58.739Z,19.31
2016-10-16T11:56:58.137Z,19.21
2016-10-16T11:57:58.836Z,19.34
2016-10-16T11:58:58.701Z,19.55
2016-10-16T11:59:58.369Z,19.4
2016-10-16T12:01:00.274Z,20.04
2016-10-16T12:02:00.415Z,20.22
2016-10-16T12:02:58.783Z,20.28
2016-10-16T12:03:58.282Z,19.99
2016-10-16T12:04:59.240Z,19.82
2016-10-16T12:05:58.484Z,19.45
2016-10-16T12:06:59.218Z,19.29
2016-10-16T12:07:58.917Z,19.07
2016-10-16T12:08:59.221Z,19.08
2016-10-16T12:10:00.418Z,18.93
2016-10-16T12:10:59.123Z,18.88
2016-10-16T12:11:58.375Z,19.09
2016-10-16T12:12:59.172Z,19.07
2016-10-16T12:13:59.393Z,19.02
2016-10-16T12:14:59.558Z,19.34
2016-10-16T12:15:59.366Z,19.52
2016-10-16T12:16:58.783Z,19.55
2016-10-16T12:17:59.975Z,19.64
2016-10-16T12:19:00.008Z,20.09
2016-10-16T12:19:59.037Z,20.44
2016-10-16T12:20:58.907Z,19.96
2016-10-16T12:21:59.012Z,19.92
2016-10-16T12:22:59.555Z,20.03
2016-10-16T12:23:59.056Z,20.07
2016-10-16T12:24:58.830Z,20.25
2016-10-16T12:25:59.943Z,20.02
2016-10-16T12:27:00.329Z,20.31
2016-10-16T12:27:59.551Z,20.09
2016-10-16T12:29:00.451Z,19.74
2016-10-16T12:29:59.422Z,20.25
2016-10-16T12:30:59.145Z,19.79
2016-10-16T12:32:00.353Z,19.55
2016-10-16T12:33:00.019Z,20.18
2016-10-16T12:34:00.899Z,20.44
2016-10-16T12:35:00.817Z,21.02
2016-10-16T12:36:00.329Z,20.65
2016-10-16T12:37:00.604Z,21
2016-10-16T12:38:00.811Z,20.19
2016-10-16T12:38:59.932Z,19.64
2016-10-16T12:40:01.194Z,19.37
2016-10-16T12:41:00.128Z,19.24
2016-10-16T12:41:59.443Z,19.56
2016-10-16T12:43:00.697Z,19.67
2016-10-16T12:44:00.702Z,20.18
2016-10-16T12:45:00.728Z,20.03
2016-10-16T12:46:00.922Z,20.19
2016-10-16T12:47:00.527Z,20.28
2016-10-16T12:48:01.008Z,20
2016-10-16T12:49:00.738Z,19.92
2016-10-16T12:50:00.337Z,20.02
2016-10-16T12:51:00.029Z,19.96
2016-10-16T12:52:00.822Z,20.14
2016-10-16T12:53:00.338Z,20.19
2016-10-16T12:54:00.246Z,20.14
2016-10-16T12:55:01.169Z,19.73
2016-10-16T12:56:00.170Z,19.49
2016-10-16T12:57:02.042Z,19.69
2016-10-16T12:58:01.219Z,19.77
2016-10-16T12:59:00.062Z,20.04
2016-10-16T13:00:00.229Z,20.03
2016-10-16T13:01:00.245Z,20.28
2016-10-16T13:02:00.465Z,20.06
2016-10-16T13:03:01.327Z,20.13
2016-10-16T13:04:00.060Z,20.19
2016-10-16T13:05:00.755Z,20.34
2016-10-16T13:06:00.796Z,20.19
2016-10-16T13:07:00.554Z,19.64
2016-10-16T13:08:01.917Z,19.82
2016-10-16T13:09:00.968Z,19.82
2016-10-16T13:10:00.417Z,19.95
2016-10-16T13:11:00.868Z,20.02
2016-10-16T13:12:01.167Z,20.02
2016-10-16T13:13:00.918Z,19.88
2016-10-16T13:14:00.684Z,19.92
2016-10-16T13:15:00.509Z,19.7
2016-10-16T13:16:00.541Z,19.86
2016-10-16T13:17:00.587Z,20.4
2016-10-16T13:18:01.485Z,20.6